Terminal Aerodrome Forecast
Issued by NWS

Home | Current Version | Previous Version | Text Only | Print | Product List | Glossary On
Versions: 1 2 3 4 5 6 7 8 9 10 11 12 13 14 15 16 17 18 19 20 21 22 23 24 25 26 27 28 29 30 31 32 33 34 35 36 37 38 39
000
FTUS43 KLOT 012200 AAB
TAFORD
TAF AMD
KORD 012200Z 0122/0224 04021G35KT 1/2SM SN BLSN OVC007
      TEMPO 0122/0202 1/4SM SN BLSN
     FM020300 01022G32KT 3/4SM -SN BLSN OVC008
     FM020600 35017G25KT 3SM -SN BLSN OVC015
     FM021200 32013G18KT P6SM BKN025
     FM021700 27010KT P6SM SCT200=

USA.gov is the U.S. government's official web portal to all federal, state and local government web resources and services.